Pagrindinis puslapis
METAR-TAF:

METAR-TAF

Oro uostai :

Teheranas, Iranas

platuma: 35-41N, ilguma: 051-21E, Aukštis: 1204 m

Dabartinis oras

Ataskaita buvo paskelbta 22 minutes, ne 18:00 UTC
Vėjas 4 kt iš Rytų/Pietryčių
Temperatūra 26°C
Drėgmė 23%
Slėgis 1017 hPa
Matomumas 10 km arba daugiau
nėra debesų žemiau 1500 m ir nėra kamuolinių lietaus debesų

METAR: OIII 241800Z 12004KT CAVOK 26/03 Q1017 A3004 NOSIG

Laikas: 21:52 (18:22 UTC)

Prognozė

Ataskaita buvo paskelbta 32 minutes, ne 17:50 UTC
Prognozė galioja nuo 24 metu 18 UTC su 25 metu 24 UTC
Vėjas 8 kt iš Rytų/Šiaurės Rytų
Matomumas: 8000 m
Laikinai
nuo 25 metu 08 UTC su 25 metu 12 UTC
Vėjas 14 kt iš Pietų/Pietryčių
Laikinai
nuo 25 metu 12 UTC su 25 metu 15 UTC
Mažai debesys ne aukštis 3500 ft, aukštai iškilę kamuoliniai debesys.
Išsisklaidę debesys ne aukštis 10000 ft

TAF: OIII 241750Z 2418/2524 06008KT 8000 NSC TEMPO 2508/2512 16014KT TEMPO 2512/2515 FEW035TCU SCT100

Orai ataskaitas ir orų prognozės (METAR, TAF).

turimą stotys yra geltonos ir raudonos taškus žemėlapyje.

Perkelti pele per norėdami pamatyti stoties vardą.

Tada spustelėkite, norėdami matyti oro stebėjimo ir prognozės.

Norėdami pakeisti žemėlapį: spustelėkite ant žalios mygtukų su juodo kryžiaus žemyn,; žalią mygtuką su brūkšneliu, jei norite nutolinti; arba žalių rodyklių gretimoms žemėlapius.


METAR-TAF: